Time;durP1;ratioP1;P1;durP2;ratioP2;P2;SDS_P1;SDS_P2;PMS_P1;PMS_P2;Temp;Humidity;BMP_temperature;BMP_pressure;BME280_temperature;BME280_humidity;BME280_pressure;Samples;Min_cycle;Max_cycle;Signal;HPM_P1;HPM_P2
2023/09/15 00:00:41;;;;;;;;;;;;;;;13.95;71.26;100997.31;5019132;28;2236;-73
2023/09/15 00:03:33;;;;;;;;;;;;;;;13.94;71.14;100999.22;5018034;28;1777;-73
2023/09/15 00:06:26;;;;;;;;;;;;;;;13.95;71.10;101005.44;5009697;28;2334;-73
2023/09/15 00:09:18;;;;;;;;;;;;;;;13.94;71.02;101006.50;4998420;28;2216;-74
2023/09/15 00:12:10;;;;;;;;;;;;;;;13.94;71.21;100992.94;4997634;28;2246;-72
2023/09/15 00:15:07;;;;;;;;;;;;;;;13.94;71.03;100993.81;5001572;28;2494;-73
2023/09/15 00:17:59;;;;;;;;;;;;;;;13.94;71.18;100991.09;5000955;28;2569;-73
2023/09/15 00:20:50;;;;;;;;;;;;;;;13.93;71.03;100994.03;4997558;28;2222;-75
2023/09/15 00:23:42;;;;;;;;;;;;;;;13.93;71.14;100981.31;4996155;28;2260;-73
2023/09/15 00:26:34;;;;;;;;;;;;;;;13.92;70.96;100979.66;4997595;28;2170;-74
2023/09/15 00:29:27;;;;;;;;;;;;;;;13.92;70.92;100979.66;4996959;28;2171;-73
2023/09/15 00:32:18;;;;;;;;;;;;;;;13.92;71.18;100984.25;4998145;28;2218;-74
2023/09/15 00:35:11;;;;;;;;;;;;;;;13.92;71.03;100981.53;5000127;28;2166;-74
2023/09/15 00:38:03;;;;;;;;;;;;;;;13.92;70.96;100973.44;4994619;28;2246;-73
2023/09/15 00:40:54;;;;;;;;;;;;;;;13.91;71.11;100966.34;4997824;28;2435;-74
2023/09/15 00:43:46;;;;;;;;;;;;;;;13.91;71.14;100964.44;5005777;28;2314;-74
2023/09/15 00:46:38;;;;;;;;;;;;;;;13.91;71.12;100964.44;5008670;28;2093;-74
2023/09/15 00:49:30;;;;;;;;;;;;;;;13.91;70.95;100960.94;5026981;28;1805;-74
2023/09/15 00:52:22;;;;;;;;;;;;;;;13.89;70.99;100958.47;5021380;28;1907;-73
2023/09/15 00:55:14;;;;;;;;;;;;;;;13.90;71.03;100960.09;5014862;28;2028;-74
2023/09/15 00:58:11;;;;;;;;;;;;;;;13.90;70.89;100965.53;5021384;28;1941;-74
2023/09/15 01:01:04;;;;;;;;;;;;;;;13.89;71.13;100953.03;5008692;28;2074;-74
2023/09/15 01:03:56;;;;;;;;;;;;;;;13.89;71.09;100950.34;5018200;28;2422;-73
2023/09/15 01:06:47;;;;;;;;;;;;;;;13.89;71.08;100957.66;5020908;28;1921;-73
2023/09/15 01:09:39;;;;;;;;;;;;;;;13.89;71.07;100950.34;4996549;28;2289;-74
2023/09/15 01:12:33;;;;;;;;;;;;;;;13.88;70.89;100945.13;4993893;28;2219;-73
2023/09/15 01:15:24;;;;;;;;;;;;;;;13.88;70.91;100950.56;4999922;28;2278;-73
2023/09/15 01:18:16;;;;;;;;;;;;;;;13.87;71.01;100957.84;5000476;28;2184;-74
2023/09/15 01:21:08;;;;;;;;;;;;;;;13.88;71.02;100959.50;5000590;28;2131;-72
2023/09/15 01:24:00;;;;;;;;;;;;;;;13.87;71.01;100957.84;4995250;28;2260;-73
2023/09/15 01:26:51;;;;;;;;;;;;;;;13.88;71.03;100958.69;4996761;28;2233;-72
2023/09/15 01:29:43;;;;;;;;;;;;;;;13.87;71.03;100965.97;4999132;28;2155;-74
2023/09/15 01:32:35;;;;;;;;;;;;;;;13.86;70.91;100970.56;4995392;28;2566;-74
2023/09/15 01:35:27;;;;;;;;;;;;;;;13.86;70.81;100961.63;4996846;28;2273;-74
2023/09/15 01:38:19;;;;;;;;;;;;;;;13.85;70.82;100954.56;4994506;28;2364;-74
2023/09/15 01:41:11;;;;;;;;;;;;;;;13.86;70.87;100956.22;4996022;28;2116;-75
2023/09/15 01:44:04;;;;;;;;;;;;;;;13.85;71.02;100960.81;4998441;28;2214;-73
2023/09/15 01:46:55;;;;;;;;;;;;;;;13.85;70.73;100968.09;4992294;28;2373;-73
2023/09/15 01:49:47;;;;;;;;;;;;;;;13.85;71.01;100970.78;4993707;28;2304;-74
2023/09/15 01:52:39;;;;;;;;;;;;;;;13.84;70.93;100967.25;4999042;28;2504;-73
2023/09/15 01:55:31;;;;;;;;;;;;;;;13.84;70.99;100952.91;4995800;28;2495;-73
2023/09/15 01:58:23;;;;;;;;;;;;;;;13.84;70.67;100950.19;4995148;28;2144;-73
2023/09/15 02:01:15;;;;;;;;;;;;;;;13.84;70.54;100947.50;4993535;28;2257;-74
2023/09/15 02:04:07;;;;;;;;;;;;;;;13.84;70.81;100944.78;4990916;28;2156;-74
2023/09/15 02:06:59;;;;;;;;;;;;;;;13.83;70.77;100943.97;4999500;28;2158;-73
2023/09/15 02:09:51;;;;;;;;;;;;;;;13.83;70.93;100946.69;4996086;28;2262;-73
2023/09/15 02:12:44;;;;;;;;;;;;;;;13.83;70.80;100946.69;5001368;28;2335;-74
2023/09/15 02:15:36;;;;;;;;;;;;;;;13.83;70.77;100945.84;4996673;28;2181;-74
2023/09/15 02:18:28;;;;;;;;;;;;;;;13.83;70.87;100943.16;5013030;28;1659;-74
2023/09/15 02:21:19;;;;;;;;;;;;;;;13.82;70.73;100944.19;5012125;28;1693;-74
2023/09/15 02:24:11;;;;;;;;;;;;;;;13.82;70.98;100936.91;5019254;28;1964;-73
2023/09/15 02:27:03;;;;;;;;;;;;;;;13.81;70.94;100940.66;5017927;28;1928;-73
2023/09/15 02:29:55;;;;;;;;;;;;;;;13.81;70.89;100937.94;5019953;28;2157;-73
2023/09/15 02:32:47;;;;;;;;;;;;;;;13.82;70.73;100936.91;5015767;28;2200;-74
2023/09/15 02:35:39;;;;;;;;;;;;;;;13.81;70.94;100934.44;5021708;28;1851;-75
2023/09/15 02:38:30;;;;;;;;;;;;;;;13.81;70.80;100935.25;5019883;28;2091;-75
2023/09/15 02:41:22;;;;;;;;;;;;;;;13.81;70.89;100932.53;5010603;28;2201;-73
2023/09/15 02:44:14;;;;;;;;;;;;;;;13.82;70.77;100925.22;5017658;28;2273;-73
2023/09/15 02:47:07;;;;;;;;;;;;;;;13.81;70.66;100926.31;5002989;28;2314;-74
2023/09/15 02:49:58;;;;;;;;;;;;;;;13.80;70.69;100930.91;4998852;28;2332;-73
2023/09/15 02:52:51;;;;;;;;;;;;;;;13.80;70.66;100925.47;4997518;28;2263;-73
2023/09/15 02:55:42;;;;;;;;;;;;;;;13.80;70.84;100936.31;5001534;28;2301;-75
2023/09/15 02:58:33;;;;;;;;;;;;;;;13.81;70.83;100929.00;4997716;28;2297;-74
2023/09/15 03:01:26;;;;;;;;;;;;;;;13.79;70.85;100921.09;4999455;28;2380;-73
2023/09/15 03:04:19;;;;;;;;;;;;;;;13.80;70.81;100919.25;5005558;28;2313;-74
2023/09/15 03:07:11;;;;;;;;;;;;;;;13.79;70.68;100906.75;4999785;28;2273;-75
2023/09/15 03:10:04;;;;;;;;;;;;;;;13.79;70.81;100906.75;5003709;28;2351;-73
2023/09/15 03:12:55;;;;;;;;;;;;;;;13.80;70.64;100913.84;4996615;28;2337;-74
2023/09/15 03:15:48;;;;;;;;;;;;;;;13.78;70.77;100910.53;5005355;28;2295;-74
2023/09/15 03:18:39;;;;;;;;;;;;;;;13.78;70.69;100919.47;5027249;28;2181;-74
2023/09/15 03:21:33;;;;;;;;;;;;;;;13.78;70.65;100911.34;5019406;28;2130;-73
2023/09/15 03:24:25;;;;;;;;;;;;;;;13.78;70.61;100914.06;5018806;28;2059;-74
2023/09/15 03:27:17;;;;;;;;;;;;;;;13.78;70.77;100918.66;5021116;28;1059;-74
2023/09/15 03:30:10;;;;;;;;;;;;;;;13.78;70.77;100913.22;5018463;28;1948;-73
2023/09/15 03:33:01;;;;;;;;;;;;;;;13.77;70.85;100922.41;5024752;28;1903;-74
2023/09/15 03:35:54;;;;;;;;;;;;;;;13.77;70.82;100925.13;5021996;28;2083;-73
2023/09/15 03:38:46;;;;;;;;;;;;;;;13.77;70.65;100931.38;4998387;28;2753;-73
2023/09/15 03:41:39;;;;;;;;;;;;;;;13.77;70.81;100931.38;5000905;28;2325;-73
2023/09/15 03:44:30;;;;;;;;;;;;;;;13.78;70.80;100935.72;4996281;28;2135;-73
2023/09/15 03:47:22;;;;;;;;;;;;;;;13.77;70.85;100933.25;5008986;28;2400;-73
2023/09/15 03:50:19;;;;;;;;;;;;;;;13.76;70.75;100924.28;4994036;28;2202;-73
2023/09/15 03:53:10;;;;;;;;;;;;;;;13.76;70.59;100913.44;4992614;28;2321;-73
2023/09/15 03:56:03;;;;;;;;;;;;;;;13.76;70.75;100904.50;5007393;28;2177;-75
2023/09/15 03:58:55;;;;;;;;;;;;;;;13.76;70.56;100916.16;4995356;28;2694;-73
2023/09/15 04:01:48;;;;;;;;;;;;;;;13.75;70.58;100924.53;5004070;28;2204;-74
2023/09/15 04:04:40;;;;;;;;;;;;;;;13.76;70.75;100920.75;5002007;28;2201;-75
2023/09/15 04:07:31;;;;;;;;;;;;;;;13.76;70.57;100918.03;4998129;28;2281;-74
2023/09/15 04:10:23;;;;;;;;;;;;;;;13.76;70.57;100918.03;4998201;28;2276;-74
2023/09/15 04:13:15;;;;;;;;;;;;;;;13.75;70.51;100927.22;4998753;28;2306;-73
2023/09/15 04:16:08;;;;;;;;;;;;;;;13.75;70.58;100927.22;5008987;28;2118;-74
2023/09/15 04:19:01;;;;;;;;;;;;;;;13.75;70.79;100927.22;5001417;28;2504;-73
2023/09/15 04:21:53;;;;;;;;;;;;;;;13.74;70.70;100934.53;5002149;28;2330;-73
2023/09/15 04:24:46;;;;;;;;;;;;;;;13.74;70.76;100937.25;4996083;28;2234;-73
2023/09/15 04:27:37;;;;;;;;;;;;;;;13.74;70.76;100948.06;5004771;28;2364;-74
2023/09/15 04:30:29;;;;;;;;;;;;;;;13.73;70.70;100949.09;4995861;28;2237;-75
2023/09/15 04:33:23;;;;;;;;;;;;;;;13.74;70.63;100942.66;4997276;28;2174;-72
2023/09/15 04:36:14;;;;;;;;;;;;;;;13.74;70.51;100952.66;4999391;28;2208;-73
2023/09/15 04:39:07;;;;;;;;;;;;;;;13.73;70.67;100959.94;4996480;28;2159;-74
2023/09/15 04:41:58;;;;;;;;;;;;;;;13.73;70.75;100949.09;5001483;28;2187;-72
2023/09/15 04:44:51;;;;;;;;;;;;;;;13.73;70.73;100953.69;5006012;28;2169;-73
2023/09/15 04:47:42;;;;;;;;;;;;;;;13.73;70.73;100956.41;5000810;28;2223;-74
2023/09/15 04:50:36;;;;;;;;;;;;;;;13.72;70.54;100957.47;4998515;28;2502;-75
2023/09/15 04:53:27;;;;;;;;;;;;;;;13.72;70.65;100954.75;5004390;28;2255;-72
2023/09/15 04:56:20;;;;;;;;;;;;;;;13.72;70.74;100954.75;4995590;28;2358;-73
2023/09/15 04:59:16;;;;;;;;;;;;;;;13.72;70.73;100961.00;5002583;28;2344;-73
2023/09/15 05:02:08;;;;;;;;;;;;;;;13.71;70.51;100955.81;5017697;28;2126;-74
2023/09/15 05:04:59;;;;;;;;;;;;;;;13.71;70.69;100962.06;5012105;28;2120;-75
2023/09/15 05:07:51;;;;;;;;;;;;;;;13.71;70.66;100956.66;5014227;28;1948;-74
2023/09/15 05:10:48;;;;;;;;;;;;;;;13.71;70.46;100962.06;5007890;28;2219;-73
2023/09/15 05:13:39;;;;;;;;;;;;;;;13.71;70.59;100961.25;5009815;28;2031;-73
2023/09/15 05:16:31;;;;;;;;;;;;;;;13.71;70.50;100962.06;5012261;28;1956;-74
2023/09/15 05:19:23;;;;;;;;;;;;;;;13.71;70.65;100961.25;5015940;28;2037;-73
2023/09/15 05:22:15;;;;;;;;;;;;;;;13.70;70.62;100959.56;5013640;28;1859;-73
2023/09/15 05:25:07;;;;;;;;;;;;;;;13.70;70.67;100965.81;5011301;28;1973;-73
2023/09/15 05:28:01;;;;;;;;;;;;;;;13.70;70.66;100965.81;5020741;28;1725;-73
2023/09/15 05:30:52;;;;;;;;;;;;;;;13.70;70.60;100964.97;5011152;28;2347;-74
2023/09/15 05:33:44;;;;;;;;;;;;;;;13.69;70.53;100961.47;5009965;28;2097;-73
2023/09/15 05:36:37;;;;;;;;;;;;;;;13.69;70.61;100971.47;5012973;28;2011;-75
2023/09/15 05:39:30;;;;;;;;;;;;;;;13.68;70.50;100965.22;5017213;28;2486;-73
2023/09/15 05:42:22;;;;;;;;;;;;;;;13.70;70.64;100967.69;5010836;28;2286;-74
2023/09/15 05:45:15;;;;;;;;;;;;;;;13.69;70.64;100964.16;5020902;28;2407;-73
2023/09/15 05:48:12;;;;;;;;;;;;;;;13.69;70.67;100966.06;5016231;28;2034;-75
2023/09/15 05:51:04;;;;;;;;;;;;;;;13.68;70.62;100959.81;5017675;28;2161;-72
2023/09/15 05:53:55;;;;;;;;;;;;;;;13.68;70.64;100967.94;4996007;28;2443;-73
2023/09/15 05:56:46;;;;;;;;;;;;;;;13.68;70.63;100964.38;4997484;28;2281;-74
2023/09/15 05:59:39;;;;;;;;;;;;;;;13.68;70.66;100975.22;4995374;28;2186;-75
2023/09/15 06:02:31;;;;;;;;;;;;;;;13.68;70.43;100975.22;4996136;28;2188;-75
2023/09/15 06:05:25;;;;;;;;;;;;;;;13.68;70.48;100975.22;4996618;28;2283;-75
2023/09/15 06:08:16;;;;;;;;;;;;;;;13.67;70.55;100977.09;4997514;28;2235;-73
2023/09/15 06:11:08;;;;;;;;;;;;;;;13.67;70.55;100974.38;5001032;28;2266;-74
2023/09/15 06:13:59;;;;;;;;;;;;;;;13.68;70.52;100988.75;4994511;28;2400;-74
2023/09/15 06:16:52;;;;;;;;;;;;;;;13.67;70.62;100987.91;5001572;28;2145;-73
2023/09/15 06:19:43;;;;;;;;;;;;;;;13.68;70.63;100992.28;4994669;28;4644;-74
2023/09/15 06:22:35;;;;;;;;;;;;;;;13.67;70.43;100993.34;4999672;28;4985;-73
2023/09/15 06:25:27;;;;;;;;;;;;;;;13.67;70.68;100982.50;5002933;28;4708;-72
2023/09/15 06:28:19;;;;;;;;;;;;;;;13.67;70.63;100990.63;5000522;28;2189;-73
2023/09/15 06:31:12;;;;;;;;;;;;;;;13.68;70.43;100986.03;4998876;28;2147;-74
2023/09/15 06:34:04;;;;;;;;;;;;;;;13.66;70.47;100985.47;5001003;28;2145;-73
2023/09/15 06:36:56;;;;;;;;;;;;;;;13.67;70.58;100985.22;4998272;28;4671;-73
2023/09/15 06:39:47;;;;;;;;;;;;;;;13.67;70.50;100987.09;5001299;28;2315;-73
2023/09/15 06:42:39;;;;;;;;;;;;;;;13.67;70.60;100987.09;5001176;28;2182;-74
2023/09/15 06:45:32;;;;;;;;;;;;;;;13.66;70.52;100988.97;5002402;28;2328;-74
2023/09/15 06:48:23;;;;;;;;;;;;;;;13.65;70.42;100995.47;5000387;28;2425;-74
2023/09/15 06:51:14;;;;;;;;;;;;;;;13.66;70.59;100991.69;4997191;28;2323;-74
2023/09/15 06:54:07;;;;;;;;;;;;;;;13.66;70.62;100997.09;5011672;28;2114;-74
2023/09/15 06:56:58;;;;;;;;;;;;;;;13.66;70.59;100988.16;4997813;28;2302;-73
2023/09/15 06:59:51;;;;;;;;;;;;;;;13.66;70.55;100994.41;5000273;28;2166;-73
2023/09/15 07:02:43;;;;;;;;;;;;;;;13.65;70.55;100992.75;5000143;28;2115;-73
2023/09/15 07:05:34;;;;;;;;;;;;;;;13.66;70.54;100993.56;4998432;28;2289;-73
2023/09/15 07:08:26;;;;;;;;;;;;;;;13.65;70.61;100995.47;4998704;28;2158;-74
2023/09/15 07:11:19;;;;;;;;;;;;;;;13.66;70.44;101004.41;4985615;28;3916;-74
2023/09/15 07:14:11;;;;;;;;;;;;;;;13.66;70.62;100996.28;4998422;28;2384;-73
2023/09/15 07:17:02;;;;;;;;;;;;;;;13.65;70.41;101000.88;5003846;28;2944;-74
2023/09/15 07:19:55;;;;;;;;;;;;;;;13.66;70.44;101001.69;4997018;28;3066;-74
2023/09/15 07:22:47;;;;;;;;;;;;;;;13.65;70.48;101009.00;5004314;28;2597;-73
2023/09/15 07:25:38;;;;;;;;;;;;;;;13.66;70.64;101009.81;4996167;28;3422;-73
2023/09/15 07:28:30;;;;;;;;;;;;;;;13.65;70.59;101011.72;4997216;28;4216;-74
2023/09/15 07:31:21;;;;;;;;;;;;;;;13.64;70.64;101015.44;4994202;28;4139;-75
2023/09/15 07:34:14;;;;;;;;;;;;;;;13.67;70.57;101019.56;5000353;28;2244;-72
2023/09/15 07:37:07;;;;;;;;;;;;;;;13.65;70.57;101006.28;4999563;28;2729;-74
2023/09/15 07:39:58;;;;;;;;;;;;;;;13.66;70.37;101012.53;5001479;28;2383;-72
2023/09/15 07:42:51;;;;;;;;;;;;;;;13.66;70.39;101004.41;4997316;28;2241;-72
2023/09/15 07:45:43;;;;;;;;;;;;;;;13.65;70.43;101006.28;4994331;28;3864;-74
2023/09/15 07:48:35;;;;;;;;;;;;;;;13.65;70.53;101006.28;5004811;28;2122;-72
2023/09/15 07:51:27;;;;;;;;;;;;;;;13.64;70.59;101001.91;5001379;28;2275;-73
2023/09/15 07:54:19;;;;;;;;;;;;;;;13.66;70.35;101005.22;4999276;28;2194;-73
2023/09/15 07:57:10;;;;;;;;;;;;;;;13.64;70.54;101005.44;4995487;28;2384;-73
2023/09/15 08:00:02;;;;;;;;;;;;;;;13.66;70.58;101010.63;5000138;28;2228;-74
2023/09/15 08:02:53;;;;;;;;;;;;;;;13.63;70.53;101009.22;5012499;28;2156;-73
2023/09/15 08:05:45;;;;;;;;;;;;;;;13.66;70.56;101018.75;4995136;28;2235;-74
2023/09/15 08:08:37;;;;;;;;;;;;;;;13.65;70.54;101019.81;4999408;28;2161;-74
2023/09/15 08:11:34;;;;;;;;;;;;;;;13.66;70.45;101023.34;4996438;28;2150;-74
2023/09/15 08:14:26;;;;;;;;;;;;;;;13.66;70.56;101021.47;4994947;28;5579;-72
2023/09/15 08:17:18;;;;;;;;;;;;;;;13.67;70.56;101022.28;5009820;28;2979;-74
2023/09/15 08:20:11;;;;;;;;;;;;;;;13.66;70.32;101035.00;4999301;28;2774;-73
2023/09/15 08:23:03;;;;;;;;;;;;;;;13.66;70.57;101037.69;5011014;28;3608;-73
2023/09/15 08:25:55;;;;;;;;;;;;;;;13.68;70.54;101029.34;5014457;28;2598;-73
2023/09/15 08:28:49;;;;;;;;;;;;;;;13.67;70.41;101027.69;5013033;28;2765;-73
2023/09/15 08:31:41;;;;;;;;;;;;;;;13.68;70.39;101023.94;5014549;28;2317;-73
2023/09/15 08:34:33;;;;;;;;;;;;;;;13.67;70.35;101031.22;4999569;28;2286;-74
2023/09/15 08:37:25;;;;;;;;;;;;;;;13.68;70.54;101034.75;5001344;28;5096;-75
2023/09/15 08:40:17;;;;;;;;;;;;;;;13.67;70.36;101027.69;5015705;28;2056;-73
2023/09/15 08:43:09;;;;;;;;;;;;;;;13.68;70.59;101026.63;5024874;28;1346;-76
2023/09/15 08:46:00;;;;;;;;;;;;;;;13.68;70.56;101029.34;5001465;28;2159;-73
2023/09/15 08:48:53;;;;;;;;;;;;;;;13.68;70.38;101026.63;5017866;28;1970;-75
2023/09/15 08:51:45;;;;;;;;;;;;;;;13.67;70.35;101028.53;5013317;28;1654;-75
2023/09/15 08:54:37;;;;;;;;;;;;;;;13.68;70.57;101032.91;5019121;28;1925;-72
2023/09/15 08:57:29;;;;;;;;;;;;;;;13.68;70.56;101032.03;5019226;28;2024;-73
2023/09/15 09:00:21;;;;;;;;;;;;;;;13.69;70.42;101023.72;5016812;28;1302;-75
2023/09/15 09:03:13;;;;;;;;;;;;;;;13.68;70.51;101030.19;5022221;28;1363;-74
2023/09/15 09:06:04;;;;;;;;;;;;;;;13.70;70.60;101036.19;5001800;28;2087;-73
2023/09/15 09:08:57;;;;;;;;;;;;;;;13.70;70.63;101029.94;4991510;28;4304;-73
2023/09/15 09:11:49;;;;;;;;;;;;;;;13.71;70.66;101034.31;4997215;28;2220;-73
2023/09/15 09:14:41;;;;;;;;;;;;;;;13.71;70.71;101037.84;5000980;28;3727;-74
2023/09/15 09:17:33;;;;;;;;;;;;;;;13.70;70.68;101035.34;4997074;28;2178;-74
2023/09/15 09:20:25;;;;;;;;;;;;;;;13.71;70.54;101034.31;4994079;28;2111;-74
2023/09/15 09:23:16;;;;;;;;;;;;;;;13.71;70.71;101037.84;4993941;28;2218;-74
2023/09/15 09:26:09;;;;;;;;;;;;;;;13.72;70.72;101039.50;4996587;28;3736;-74
2023/09/15 09:29:02;;;;;;;;;;;;;;;13.71;70.73;101039.75;4998152;28;4920;-73
2023/09/15 09:31:54;;;;;;;;;;;;;;;13.72;70.73;101038.66;4996278;28;5120;-73
2023/09/15 09:34:46;;;;;;;;;;;;;;;13.73;70.75;101043.84;5008366;28;2813;-73
2023/09/15 09:37:38;;;;;;;;;;;;;;;13.73;70.62;101038.44;5002962;28;2136;-73
2023/09/15 09:40:29;;;;;;;;;;;;;;;13.73;70.70;101041.13;5004146;28;2639;-72
2023/09/15 09:43:21;;;;;;;;;;;;;;;13.73;70.84;101040.31;5008925;28;2199;-74
2023/09/15 09:46:14;;;;;;;;;;;;;;;13.73;70.71;101038.44;5003369;28;2360;-73
2023/09/15 09:49:05;;;;;;;;;;;;;;;13.73;70.70;101033.00;4995308;28;4160;-73
2023/09/15 09:51:58;;;;;;;;;;;;;;;13.73;70.75;101037.59;4995503;28;2380;-74
2023/09/15 09:54:50;;;;;;;;;;;;;;;13.74;70.85;101045.50;4986341;28;4314;-74
2023/09/15 09:57:42;;;;;;;;;;;;;;;13.74;70.79;101037.41;5002929;28;2162;-74
2023/09/15 10:00:33;;;;;;;;;;;;;;;13.75;70.75;101039.03;5000201;28;2137;-75
2023/09/15 10:03:25;;;;;;;;;;;;;;;13.75;70.81;101030.91;5000031;28;2147;-74
2023/09/15 10:06:16;;;;;;;;;;;;;;;13.75;70.98;101033.63;5005520;28;2959;-74
2023/09/15 10:09:09;;;;;;;;;;;;;;;13.76;70.82;101032.56;5023755;28;2028;-73
2023/09/15 10:12:01;;;;;;;;;;;;;;;13.76;70.93;101035.25;5010725;28;5474;-73
2023/09/15 10:14:52;;;;;;;;;;;;;;;13.76;70.99;101031.72;5022449;28;3347;-74
2023/09/15 10:17:44;;;;;;;;;;;;;;;13.76;70.78;101029.84;5013381;28;4184;-74
2023/09/15 10:20:37;;;;;;;;;;;;;;;13.79;71.12;101036.69;5013028;28;2028;-74
2023/09/15 10:23:29;;;;;;;;;;;;;;;13.79;71.03;101029.38;5005865;28;5391;-74
2023/09/15 10:26:20;;;;;;;;;;;;;;;13.79;71.08;101029.38;5009980;28;3979;-75
2023/09/15 10:29:13;;;;;;;;;;;;;;;13.80;70.99;101027.53;5018886;28;4100;-74
2023/09/15 10:32:05;;;;;;;;;;;;;;;13.80;71.10;101027.53;5013201;28;2268;-74
2023/09/15 10:34:56;;;;;;;;;;;;;;;13.80;71.10;101036.47;5001728;28;5016;-73
2023/09/15 10:37:48;;;;;;;;;;;;;;;13.82;70.96;101038.94;5021482;28;1808;-73
2023/09/15 10:40:40;;;;;;;;;;;;;;;13.80;71.10;101033.78;5010522;28;2149;-72
2023/09/15 10:43:32;;;;;;;;;;;;;;;13.81;71.00;101037.28;5017292;28;2190;-73
2023/09/15 10:46:24;;;;;;;;;;;;;;;13.82;71.19;101037.09;5014051;28;2112;-73
2023/09/15 10:49:16;;;;;;;;;;;;;;;13.83;71.17;101040.63;5008419;28;2319;-72
2023/09/15 10:52:08;;;;;;;;;;;;;;;13.82;71.13;101038.94;4997565;28;2480;-72
2023/09/15 10:55:01;;;;;;;;;;;;;;;13.84;71.22;101037.66;4998153;28;2235;-73
2023/09/15 10:57:52;;;;;;;;;;;;;;;13.84;71.09;101037.66;5008037;28;2543;-74
2023/09/15 11:00:45;;;;;;;;;;;;;;;13.84;71.10;101028.72;4998957;28;2450;-74
2023/09/15 11:03:37;;;;;;;;;;;;;;;13.85;71.13;101036.63;4995876;28;4708;-73
2023/09/15 11:06:29;;;;;;;;;;;;;;;13.85;71.12;101035.78;5021891;28;4243;-73
2023/09/15 11:09:21;;;;;;;;;;;;;;;13.86;71.21;101032.03;5011549;28;2006;-73
2023/09/15 11:12:12;;;;;;;;;;;;;;;13.87;71.15;101033.66;5021366;28;2192;-74
2023/09/15 11:15:04;;;;;;;;;;;;;;;13.87;71.12;101033.66;4999549;28;2865;-74
2023/09/15 11:17:55;;;;;;;;;;;;;;;13.88;71.11;101021.78;5023583;28;2161;-74
2023/09/15 11:20:47;;;;;;;;;;;;;;;13.89;71.16;101025.34;5016657;28;2379;-72
2023/09/15 11:23:40;;;;;;;;;;;;;;;13.90;71.26;101035.09;5020768;28;2041;-73
2023/09/15 11:26:31;;;;;;;;;;;;;;;13.89;71.19;101030.75;5027424;28;1846;-73
2023/09/15 11:29:23;;;;;;;;;;;;;;;13.90;71.23;101038.63;5017230;28;2058;-74
2023/09/15 11:32:15;;;;;;;;;;;;;;;13.90;71.31;101035.91;5011621;28;2180;-74
2023/09/15 11:35:09;;;;;;;;;;;;;;;13.92;71.29;101027.56;5010689;28;2504;-74
2023/09/15 11:38:00;;;;;;;;;;;;;;;13.92;71.21;101024.88;4997011;28;5026;-73
2023/09/15 11:40:52;;;;;;;;;;;;;;;13.92;71.36;101008.63;5012814;28;5268;-73
2023/09/15 11:43:44;;;;;;;;;;;;;;;13.92;71.24;101024.88;5017804;28;2106;-73
2023/09/15 11:46:36;;;;;;;;;;;;;;;13.92;71.18;101012.16;5008174;28;3035;-73
2023/09/15 11:49:28;;;;;;;;;;;;;;;13.94;71.39;101010.03;5012766;28;2497;-73
2023/09/15 11:52:20;;;;;;;;;;;;;;;13.93;71.36;101011.09;5022228;28;2258;-74
2023/09/15 11:55:12;;;;;;;;;;;;;;;13.94;71.33;101007.34;5020883;28;2167;-74
2023/09/15 11:58:04;;;;;;;;;;;;;;;13.95;71.41;101006.28;4997440;28;5121;-74
2023/09/15 12:00:56;;;;;;;;;;;;;;;13.95;71.32;101006.28;5012030;28;6383;-73
2023/09/15 12:03:48;;;;;;;;;;;;;;;13.96;71.35;101007.09;5013442;28;2192;-73
2023/09/15 12:06:40;;;;;;;;;;;;;;;13.96;71.34;101004.38;4997383;28;4009;-73
2023/09/15 12:09:32;;;;;;;;;;;;;;;13.96;71.36;101004.38;5008023;28;2164;-73
2023/09/15 12:12:24;;;;;;;;;;;;;;;13.97;71.40;101012.28;4996722;28;2197;-74
2023/09/15 12:15:16;;;;;;;;;;;;;;;13.98;71.17;101005.00;4999044;28;2158;-73
2023/09/15 12:18:08;;;;;;;;;;;;;;;13.98;71.42;100999.56;4999852;28;4127;-73
2023/09/15 12:21:00;;;;;;;;;;;;;;;13.99;71.45;101002.03;5015814;28;2001;-73
2023/09/15 12:23:54;;;;;;;;;;;;;;;14.00;71.07;101010.97;5004894;28;2912;-74
2023/09/15 12:26:46;;;;;;;;;;;;;;;13.99;71.29;101007.44;4986672;28;4847;-74
2023/09/15 12:29:38;;;;;;;;;;;;;;;14.00;71.25;101009.13;5016074;28;2132;-72
2023/09/15 12:32:30;;;;;;;;;;;;;;;14.01;71.35;100997.22;5020558;28;1937;-74
2023/09/15 12:35:22;;;;;;;;;;;;;;;14.01;71.45;101005.34;5020535;28;2004;-74
2023/09/15 12:38:14;;;;;;;;;;;;;;;14.02;71.32;100998.84;5024697;28;1913;-75
2023/09/15 12:41:06;;;;;;;;;;;;;;;14.03;71.33;100999.69;5015806;28;1752;-74
2023/09/15 12:43:58;;;;;;;;;;;;;;;14.03;71.37;101008.66;5008433;28;4949;-74
2023/09/15 12:46:50;;;;;;;;;;;;;;;14.03;71.30;101003.25;5014684;28;3394;-75
2023/09/15 12:49:42;;;;;;;;;;;;;;;14.03;71.34;101002.38;5015993;28;3978;-73
2023/09/15 12:52:34;;;;;;;;;;;;;;;14.04;71.46;100996.75;5015841;28;2048;-73
2023/09/15 12:55:26;;;;;;;;;;;;;;;14.04;71.43;101002.19;5013319;28;1958;-73
2023/09/15 12:58:18;;;;;;;;;;;;;;;14.05;71.42;100990.28;5014910;28;2059;-74
2023/09/15 13:01:10;;;;;;;;;;;;;;;14.05;71.40;100992.16;5003712;28;5310;-73
2023/09/15 13:04:02;;;;;;;;;;;;;;;14.06;71.42;100986.53;4993422;28;2475;-73
2023/09/15 13:06:54;;;;;;;;;;;;;;;14.06;71.48;100989.25;4995332;28;4034;-74
2023/09/15 13:09:46;;;;;;;;;;;;;;;14.07;71.51;100990.06;4994607;28;2609;-73
2023/09/15 13:12:38;;;;;;;;;;;;;;;14.07;71.46;100984.63;5000318;28;2380;-73
2023/09/15 13:15:30;;;;;;;;;;;;;;;14.07;71.52;100993.59;4994281;28;2371;-73
2023/09/15 13:18:23;;;;;;;;;;;;;;;14.07;71.49;100993.59;4995357;28;3319;-74
2023/09/15 13:21:15;;;;;;;;;;;;;;;14.08;71.65;100995.22;4998231;28;2301;-73
2023/09/15 13:24:07;;;;;;;;;;;;;;;14.09;71.74;100998.78;4993461;28;2391;-75
2023/09/15 13:26:59;;;;;;;;;;;;;;;14.09;71.59;101002.31;4993994;28;2470;-72
2023/09/15 13:29:51;;;;;;;;;;;;;;;14.12;71.77;101000.19;4995931;28;2531;-74
2023/09/15 13:32:44;;;;;;;;;;;;;;;14.10;71.67;100997.72;4993792;28;2601;-73
2023/09/15 13:35:36;;;;;;;;;;;;;;;14.10;71.67;100989.59;5006128;28;3082;-74
2023/09/15 13:38:28;;;;;;;;;;;;;;;14.11;71.63;100993.13;5003834;28;2216;-72
2023/09/15 13:41:20;;;;;;;;;;;;;;;14.12;71.76;101000.19;4995820;28;2325;-72
2023/09/15 13:44:12;;;;;;;;;;;;;;;14.12;71.67;100994.75;5000379;28;2293;-73
2023/09/15 13:47:04;;;;;;;;;;;;;;;14.12;71.86;100992.06;4995034;28;2243;-73
2023/09/15 13:49:56;;;;;;;;;;;;;;;14.12;71.88;100995.63;4993726;28;2245;-74
2023/09/15 13:52:48;;;;;;;;;;;;;;;14.12;71.79;100992.91;4994289;28;2313;-74
2023/09/15 13:55:42;;;;;;;;;;;;;;;14.14;71.81;100995.38;5005797;28;2262;-72
2023/09/15 13:58:39;;;;;;;;;;;;;;;14.14;71.97;100996.19;5007402;28;2346;-73
2023/09/15 14:01:31;;;;;;;;;;;;;;;14.14;71.86;100998.88;4997667;28;2249;-72
2023/09/15 14:04:23;;;;;;;;;;;;;;;14.15;71.98;101002.41;5004765;28;2610;-72
2023/09/15 14:07:15;;;;;;;;;;;;;;;14.15;71.98;100994.28;5011825;28;1924;-72
2023/09/15 14:10:07;;;;;;;;;;;;;;;14.15;71.95;100997.00;5005575;28;3014;-73
2023/09/15 14:12:59;;;;;;;;;;;;;;;14.15;71.81;100992.44;5014982;28;2184;-73
2023/09/15 14:15:50;;;;;;;;;;;;;;;14.16;71.83;100996.78;5017868;28;2144;-73
2023/09/15 14:18:42;;;;;;;;;;;;;;;14.17;71.93;101005.72;5019784;28;1358;-73
2023/09/15 14:21:34;;;;;;;;;;;;;;;14.17;72.03;101003.03;5016432;28;4167;-74
2023/09/15 14:24:26;;;;;;;;;;;;;;;14.16;71.85;101010.31;5011055;28;3996;-73
2023/09/15 14:27:17;;;;;;;;;;;;;;;14.17;72.03;101016.56;5000664;28;3980;-72
2023/09/15 14:30:09;;;;;;;;;;;;;;;14.18;71.99;101012.81;5010975;28;6123;-73
2023/09/15 14:33:01;;;;;;;;;;;;;;;14.18;71.83;101021.75;5010355;28;4935;-73
2023/09/15 14:35:52;;;;;;;;;;;;;;;14.18;71.83;101020.94;5023351;28;4852;-72
2023/09/15 14:38:44;;;;;;;;;;;;;;;14.19;71.85;101022.59;5009981;28;2117;-74
2023/09/15 14:41:37;;;;;;;;;;;;;;;14.18;71.84;101015.53;5004970;28;4610;-72
2023/09/15 14:44:29;;;;;;;;;;;;;;;14.19;71.89;101025.28;5022086;28;1898;-73
2023/09/15 14:47:21;;;;;;;;;;;;;;;14.20;71.99;101026.94;5015828;28;2034;-74
2023/09/15 14:50:13;;;;;;;;;;;;;;;14.20;72.10;101024.22;5014618;28;2407;-74
2023/09/15 14:53:05;;;;;;;;;;;;;;;14.19;71.87;101020.69;5017091;28;2090;-73
2023/09/15 14:55:57;;;;;;;;;;;;;;;14.20;71.91;101025.03;5022575;28;1902;-73